Time;durP1;ratioP1;P1;durP2;ratioP2;P2;SDS_P1;SDS_P2;PMS_P1;PMS_P2;Temp;Humidity;BMP_temperature;BMP_pressure;BME280_temperature;BME280_humidity;BME280_pressure;Samples;Min_cycle;Max_cycle;Signal;HPM_P1;HPM_P2
2023/09/15 00:00:34;;;;;;;0.43;0.43;;;13.70;99.90;;;;;;4415503;32;20068;-61
2023/09/15 00:03:00;;;;;;;0.90;0.55;;;13.70;99.90;;;;;;4414650;32;20074;-61
2023/09/15 00:05:28;;;;;;;0.45;0.40;;;13.80;99.90;;;;;;4412176;32;20447;-61
2023/09/15 00:07:55;;;;;;;0.80;0.70;;;13.80;99.90;;;;;;4400025;32;20346;-61
2023/09/15 00:10:21;;;;;;;0.95;0.80;;;13.80;99.90;;;;;;4397105;32;20086;-61
2023/09/15 00:12:46;;;;;;;0.57;0.30;;;13.70;99.90;;;;;;4415688;32;20057;-61
2023/09/15 00:15:12;;;;;;;0.57;0.57;;;13.70;99.90;;;;;;4417794;32;20065;-61
2023/09/15 00:17:40;;;;;;;1.10;0.50;;;13.80;99.90;;;;;;4415942;32;20136;-61
2023/09/15 00:20:13;;;;;;;1.98;1.08;;;13.90;99.90;;;;;;4412210;32;20089;-61
2023/09/15 00:22:41;;;;;;;0.60;0.60;;;13.90;99.90;;;;;;4414510;32;20061;-62
2023/09/15 00:25:07;;;;;;;0.60;0.60;;;13.90;99.90;;;;;;4397118;32;20131;-60
2023/09/15 00:27:33;;;;;;;0.57;0.57;;;13.90;99.90;;;;;;4413878;32;20139;-60
2023/09/15 00:29:58;;;;;;;3.00;0.65;;;14.00;99.90;;;;;;4415334;32;20077;-61
2023/09/15 00:32:25;;;;;;;0.82;0.60;;;13.90;99.90;;;;;;4413481;32;20082;-60
2023/09/15 00:34:51;;;;;;;0.32;0.32;;;13.90;99.90;;;;;;4417556;32;20081;-60
2023/09/15 00:37:16;;;;;;;0.40;0.40;;;13.70;99.90;;;;;;4415296;32;20085;-59
2023/09/15 00:39:42;;;;;;;0.60;0.60;;;13.80;99.90;;;;;;4414461;32;20807;-62
2023/09/15 00:42:07;;;;;;;0.60;0.43;;;13.80;99.90;;;;;;4415698;32;20108;-60
2023/09/15 00:44:34;;;;;;;1.20;0.75;;;13.80;99.90;;;;;;4416539;32;20061;-61
2023/09/15 00:46:59;;;;;;;0.40;0.40;;;13.80;99.90;;;;;;4400259;32;20085;-61
2023/09/15 00:49:25;;;;;;;0.40;0.40;;;13.80;99.90;;;;;;4418696;32;20097;-61
2023/09/15 00:51:50;;;;;;;0.40;0.40;;;13.80;99.90;;;;;;4417584;32;20085;-60
2023/09/15 00:54:16;;;;;;;0.30;0.30;;;13.80;99.90;;;;;;4419767;32;20049;-60
2023/09/15 00:56:42;;;;;;;0.88;0.88;;;13.70;99.90;;;;;;4418541;32;20050;-61
2023/09/15 00:59:10;;;;;;;0.30;0.30;;;13.70;99.90;;;;;;4419131;32;20172;-61
2023/09/15 01:01:36;;;;;;;1.33;0.50;;;13.80;99.90;;;;;;4418018;32;21105;-59
2023/09/15 01:04:02;;;;;;;0.62;0.60;;;13.80;99.90;;;;;;4413072;32;20130;-60
2023/09/15 01:06:28;;;;;;;0.30;0.30;;;13.80;99.90;;;;;;4416859;32;20089;-63
2023/09/15 01:08:55;;;;;;;0.40;0.40;;;13.70;99.90;;;;;;4418644;32;20066;-62
2023/09/15 01:11:21;;;;;;;0.40;0.40;;;13.80;99.90;;;;;;4417907;32;20098;-63
2023/09/15 01:13:49;;;;;;;0.47;0.47;;;13.80;99.90;;;;;;4420499;32;20065;-63
2023/09/15 01:16:25;;;;;;;0.50;0.50;;;13.90;99.90;;;;;;4418670;32;20097;-63
2023/09/15 01:19:00;;;;;;;3.15;0.77;;;13.90;99.90;;;;;;4404218;32;20090;-62
2023/09/15 01:21:52;;;;;;;0.82;0.80;;;13.90;99.90;;;;;;4415535;32;20098;-63
2023/09/15 01:24:47;;;;;;;2.35;0.62;;;13.80;99.90;;;;;;4400419;32;20077;-63
2023/09/15 01:27:34;;;;;;;0.55;0.55;;;13.70;99.90;;;;;;4402358;32;20612;-62
2023/09/15 01:30:02;;;;;;;0.37;0.37;;;13.70;99.90;;;;;;4389400;32;20104;-63
2023/09/15 01:32:28;;;;;;;0.50;0.50;;;13.60;99.90;;;;;;4396489;32;20073;-62
2023/09/15 01:34:54;;;;;;;0.50;0.50;;;13.60;99.90;;;;;;4414927;32;20128;-62
2023/09/15 01:37:20;;;;;;;0.37;0.37;;;13.60;99.90;;;;;;4415043;32;20933;-61
2023/09/15 01:39:47;;;;;;;0.98;0.70;;;13.60;99.90;;;;;;4415961;32;20418;-63
2023/09/15 01:42:13;;;;;;;0.40;0.40;;;13.60;99.90;;;;;;4401806;32;20476;-63
2023/09/15 01:44:38;;;;;;;0.40;0.40;;;13.60;99.90;;;;;;4400405;32;20061;-64
2023/09/15 01:47:08;;;;;;;0.68;0.62;;;13.50;99.90;;;;;;4418793;32;20390;-63
2023/09/15 01:49:34;;;;;;;0.45;0.45;;;13.50;99.90;;;;;;4402265;32;20073;-61
2023/09/15 01:52:01;;;;;;;0.80;0.77;;;13.40;99.90;;;;;;4397214;32;20560;-63
2023/09/15 01:54:26;;;;;;;0.70;0.70;;;13.50;99.90;;;;;;4418258;32;20140;-62
2023/09/15 01:56:52;;;;;;;0.30;0.30;;;13.50;99.90;;;;;;4414380;32;20057;-63
2023/09/15 01:59:17;;;;;;;3.00;0.60;;;13.50;99.90;;;;;;4413486;32;20136;-63
2023/09/15 02:01:43;;;;;;;0.30;0.30;;;13.50;99.90;;;;;;4415574;32;20077;-64
2023/09/15 02:04:09;;;;;;;0.30;0.30;;;13.50;99.90;;;;;;4426635;32;20073;-63
2023/09/15 02:06:35;;;;;;;0.57;0.57;;;13.40;99.90;;;;;;4420618;32;20086;-62
2023/09/15 02:09:01;;;;;;;0.37;0.37;;;13.30;99.90;;;;;;4419055;32;20766;-63
2023/09/15 02:11:26;;;;;;;0.40;0.40;;;13.20;99.90;;;;;;4415707;32;20069;-63
2023/09/15 02:13:51;;;;;;;0.40;0.40;;;13.20;99.90;;;;;;4418973;32;20081;-62
2023/09/15 02:16:17;;;;;;;1.23;0.60;;;13.30;99.90;;;;;;4419157;32;20077;-63
2023/09/15 02:18:43;;;;;;;0.60;0.60;;;13.30;99.90;;;;;;4419058;32;20097;-63
2023/09/15 02:21:08;;;;;;;0.30;0.30;;;13.40;99.90;;;;;;4418223;32;20070;-63
2023/09/15 02:23:34;;;;;;;0.60;0.60;;;13.40;99.90;;;;;;4419040;32;20077;-63
2023/09/15 02:26:03;;;;;;;0.40;0.40;;;13.30;99.90;;;;;;4415695;32;21258;-62
2023/09/15 02:28:29;;;;;;;5.32;0.80;;;13.30;99.90;;;;;;4398537;32;20073;-63
2023/09/15 02:30:55;;;;;;;0.60;0.50;;;13.40;99.90;;;;;;4396692;32;20081;-63
2023/09/15 02:33:22;;;;;;;1.10;1.00;;;13.40;99.90;;;;;;4405636;32;20435;-63
2023/09/15 02:35:48;;;;;;;12.82;0.70;;;13.40;99.90;;;;;;4388430;32;20074;-63
2023/09/15 02:38:14;;;;;;;1.90;0.90;;;13.30;99.90;;;;;;4418419;32;20074;-64
2023/09/15 02:40:39;;;;;;;0.68;0.68;;;13.30;99.90;;;;;;4415273;32;21577;-63
2023/09/15 02:43:04;;;;;;;0.52;0.52;;;13.30;99.90;;;;;;4416610;32;20060;-62
2023/09/15 02:45:35;;;;;;;1.62;0.90;;;13.30;99.90;;;;;;4413560;32;20525;-63
2023/09/15 02:48:00;;;;;;;0.40;0.40;;;13.20;99.90;;;;;;4400823;32;20058;-62
2023/09/15 02:50:26;;;;;;;0.50;0.50;;;13.10;99.90;;;;;;4397559;32;20074;-63
2023/09/15 02:52:51;;;;;;;0.40;0.40;;;13.10;99.90;;;;;;4401237;32;20057;-62
2023/09/15 02:55:18;;;;;;;0.75;0.43;;;13.00;99.90;;;;;;4418897;32;20053;-62
2023/09/15 02:57:43;;;;;;;0.47;0.47;;;13.00;99.90;;;;;;4418765;32;20112;-63
2023/09/15 03:00:15;;;;;;;0.37;0.37;;;13.00;99.90;;;;;;4416207;32;20592;-64
2023/09/15 03:02:40;;;;;;;0.30;0.30;;;13.10;99.90;;;;;;4400639;32;20086;-63
2023/09/15 03:05:07;;;;;;;0.40;0.40;;;13.10;99.90;;;;;;4417943;32;20061;-64
2023/09/15 03:07:36;;;;;;;0.57;0.57;;;13.10;99.90;;;;;;4403379;32;20082;-62
2023/09/15 03:10:03;;;;;;;0.40;0.40;;;13.10;99.90;;;;;;4418634;32;20626;-63
2023/09/15 03:12:28;;;;;;;0.47;0.47;;;13.10;99.90;;;;;;4418774;32;20057;-63
2023/09/15 03:14:54;;;;;;;0.30;0.30;;;13.10;99.90;;;;;;4422181;32;20073;-63
2023/09/15 03:17:21;;;;;;;0.50;0.50;;;13.10;99.90;;;;;;4416950;32;20086;-63
2023/09/15 03:19:47;;;;;;;0.75;0.60;;;13.10;99.90;;;;;;4420052;32;20147;-63
2023/09/15 03:22:12;;;;;;;0.65;0.50;;;13.10;99.90;;;;;;4415158;32;20088;-62
2023/09/15 03:24:38;;;;;;;0.35;0.35;;;13.10;99.90;;;;;;4416295;32;20073;-63
2023/09/15 03:27:04;;;;;;;0.70;0.70;;;13.10;99.90;;;;;;4415439;32;20522;-61
2023/09/15 03:29:30;;;;;;;0.40;0.40;;;13.10;99.90;;;;;;4418176;32;20132;-60
2023/09/15 03:31:57;;;;;;;3.85;1.60;;;13.10;99.90;;;;;;4414470;32;20445;-60
2023/09/15 03:34:22;;;;;;;0.47;0.47;;;13.00;99.90;;;;;;4417040;32;20219;-62
2023/09/15 03:36:48;;;;;;;0.70;0.55;;;13.00;99.90;;;;;;4416224;32;20199;-60
2023/09/15 03:39:13;;;;;;;5.20;1.70;;;13.00;99.90;;;;;;4419320;32;20548;-60
2023/09/15 03:41:39;;;;;;;0.20;0.20;;;13.10;99.90;;;;;;4416671;32;20089;-62
2023/09/15 03:44:05;;;;;;;0.30;0.30;;;13.10;99.90;;;;;;4415641;32;20077;-61
2023/09/15 03:46:31;;;;;;;0.52;0.52;;;13.10;99.90;;;;;;4416706;32;20066;-61
2023/09/15 03:48:57;;;;;;;0.30;0.30;;;13.10;99.90;;;;;;4414505;32;20070;-59
2023/09/15 03:51:22;;;;;;;0.40;0.40;;;13.10;99.90;;;;;;4415247;32;20116;-61
2023/09/15 03:53:48;;;;;;;0.60;0.60;;;13.10;99.90;;;;;;4417614;32;20518;-61
2023/09/15 03:56:14;;;;;;;0.30;0.30;;;13.10;99.90;;;;;;4415942;32;20069;-60
2023/09/15 03:58:39;;;;;;;0.40;0.40;;;13.10;99.90;;;;;;4419749;32;20078;-60
2023/09/15 04:01:09;;;;;;;0.30;0.30;;;13.10;99.90;;;;;;4414756;32;20129;-60
2023/09/15 04:03:34;;;;;;;1.08;0.50;;;13.00;99.90;;;;;;4417250;32;20068;-60
2023/09/15 04:06:00;;;;;;;0.50;0.50;;;13.00;99.90;;;;;;4397165;32;20132;-60
2023/09/15 04:08:26;;;;;;;0.65;0.65;;;12.90;99.90;;;;;;4418697;32;20525;-62
2023/09/15 04:10:51;;;;;;;0.60;0.60;;;13.00;99.90;;;;;;4415010;32;20101;-60
2023/09/15 04:13:16;;;;;;;0.20;0.20;;;12.90;99.90;;;;;;4402752;32;20086;-61
2023/09/15 04:15:42;;;;;;;0.30;0.30;;;12.80;99.90;;;;;;4401902;32;20089;-62
2023/09/15 04:18:08;;;;;;;0.55;0.55;;;12.70;99.90;;;;;;4418538;32;20435;-62
2023/09/15 04:20:34;;;;;;;0.32;0.32;;;12.80;99.90;;;;;;4418368;32;20098;-62
2023/09/15 04:22:59;;;;;;;0.60;0.60;;;12.70;99.90;;;;;;4411484;32;20070;-60
2023/09/15 04:25:25;;;;;;;0.55;0.55;;;12.70;99.90;;;;;;4417437;32;20090;-60
2023/09/15 04:27:51;;;;;;;5.65;0.82;;;12.60;99.90;;;;;;4417918;32;20085;-62
2023/09/15 04:30:16;;;;;;;0.28;0.28;;;12.70;99.90;;;;;;4416443;32;20054;-62
2023/09/15 04:32:42;;;;;;;1.25;0.70;;;12.70;99.90;;;;;;4418390;32;20487;-60
2023/09/15 04:35:09;;;;;;;0.70;0.65;;;12.60;99.90;;;;;;4415990;32;20151;-61
2023/09/15 04:37:35;;;;;;;0.68;0.68;;;12.60;99.90;;;;;;4404628;32;20074;-64
2023/09/15 04:40:02;;;;;;;0.40;0.40;;;12.60;99.90;;;;;;4415608;32;20073;-63
2023/09/15 04:42:28;;;;;;;1.55;0.60;;;12.70;99.90;;;;;;4416554;32;20085;-63
2023/09/15 04:44:54;;;;;;;0.55;0.55;;;12.70;99.90;;;;;;4417546;32;20418;-62
2023/09/15 04:47:31;;;;;;;1.75;0.52;;;12.70;99.90;;;;;;4417928;32;20453;-64
2023/09/15 04:49:56;;;;;;;0.70;0.70;;;12.70;99.90;;;;;;4413302;32;20579;-63
2023/09/15 04:52:22;;;;;;;0.93;0.90;;;12.70;99.90;;;;;;4415531;32;20104;-62
2023/09/15 04:54:47;;;;;;;0.30;0.30;;;12.70;99.90;;;;;;4417817;32;20066;-63
2023/09/15 04:57:13;;;;;;;0.40;0.40;;;12.70;99.90;;;;;;4417905;32;20100;-63
2023/09/15 04:59:38;;;;;;;0.47;0.47;;;12.70;99.90;;;;;;4415252;32;20081;-65
2023/09/15 05:02:06;;;;;;;0.60;0.52;;;12.80;99.90;;;;;;4411489;32;20077;-63
2023/09/15 05:04:33;;;;;;;0.35;0.35;;;12.70;99.90;;;;;;4413189;32;20176;-64
2023/09/15 05:06:59;;;;;;;0.35;0.35;;;12.80;99.90;;;;;;4413353;32;20081;-63
2023/09/15 05:09:24;;;;;;;1.02;0.50;;;12.80;99.90;;;;;;4415417;32;20120;-61
2023/09/15 05:11:52;;;;;;;0.35;0.35;;;12.80;99.90;;;;;;4413846;32;20483;-65
2023/09/15 05:14:18;;;;;;;0.25;0.25;;;12.80;99.90;;;;;;4415391;32;20407;-61
2023/09/15 05:16:43;;;;;;;1.15;0.75;;;12.80;99.90;;;;;;4410919;32;20117;-62
2023/09/15 05:19:09;;;;;;;0.60;0.60;;;12.80;99.90;;;;;;4405698;32;20069;-62
2023/09/15 05:21:35;;;;;;;1.15;1.05;;;12.90;99.90;;;;;;4412303;32;20088;-64
2023/09/15 05:24:01;;;;;;;3.30;0.50;;;12.90;99.90;;;;;;4415693;32;20512;-62
2023/09/15 05:26:27;;;;;;;0.50;0.50;;;13.00;99.90;;;;;;4405190;32;20077;-64
2023/09/15 05:28:53;;;;;;;0.75;0.75;;;13.10;99.90;;;;;;4408660;32;20213;-63
2023/09/15 05:31:23;;;;;;;1.08;0.70;;;13.10;99.90;;;;;;4383970;32;20089;-63
2023/09/15 05:33:49;;;;;;;0.50;0.47;;;13.00;99.90;;;;;;4405320;32;20545;-62
2023/09/15 05:36:15;;;;;;;1.85;1.20;;;13.10;99.90;;;;;;4405915;32;20124;-62
2023/09/15 05:38:41;;;;;;;0.40;0.40;;;13.10;99.90;;;;;;4400828;32;20386;-60
2023/09/15 05:41:22;;;;;;;0.40;0.40;;;13.20;99.90;;;;;;4408588;32;20089;-62
2023/09/15 05:43:50;;;;;;;;;;;13.30;99.90;;;;;;4408214;32;20433;-63
2023/09/15 05:46:16;;;;;;;2.92;1.58;;;13.30;99.90;;;;;;4409420;32;20015;-60
2023/09/15 05:48:42;;;;;;;0.77;0.40;;;13.40;99.90;;;;;;4397961;32;20857;-61
2023/09/15 05:51:08;;;;;;;0.50;0.50;;;13.50;99.90;;;;;;4397512;32;20085;-62
2023/09/15 05:53:34;;;;;;;0.60;0.60;;;13.50;99.90;;;;;;4386863;32;20276;-63
2023/09/15 05:56:00;;;;;;;0.50;0.50;;;13.60;99.90;;;;;;4387041;32;20082;-63
2023/09/15 05:58:25;;;;;;;1.00;0.85;;;13.60;99.90;;;;;;4389705;32;20588;-62
2023/09/15 06:00:54;;;;;;;0.70;0.70;;;13.60;99.90;;;;;;4380163;32;20525;-59
2023/09/15 06:03:22;;;;;;;0.50;0.50;;;13.70;99.90;;;;;;4377289;32;20252;-61
2023/09/15 06:05:47;;;;;;;11.65;1.15;;;13.70;99.90;;;;;;4388246;32;20410;-61
2023/09/15 06:08:14;;;;;;;0.32;0.32;;;13.80;99.90;;;;;;4386774;32;20181;-63
2023/09/15 06:10:40;;;;;;;0.70;0.40;;;13.90;99.90;;;;;;4383173;32;20209;-62
2023/09/15 06:13:06;;;;;;;0.52;0.52;;;13.90;99.90;;;;;;4388810;32;20267;-62
2023/09/15 06:15:34;;;;;;;0.52;0.50;;;14.00;99.90;;;;;;4383727;32;20121;-62
2023/09/15 06:18:01;;;;;;;0.60;0.60;;;14.00;99.90;;;;;;4390997;32;20077;-60
2023/09/15 06:20:30;;;;;;;0.50;0.50;;;14.20;99.90;;;;;;4387001;32;20797;-62
2023/09/15 06:22:56;;;;;;;0.50;0.50;;;14.20;99.90;;;;;;4393474;32;20106;-62
2023/09/15 06:25:22;;;;;;;0.43;0.43;;;14.30;99.90;;;;;;4386300;32;20654;-61
2023/09/15 06:27:47;;;;;;;0.60;0.60;;;14.40;99.90;;;;;;4382856;32;20073;-61
2023/09/15 06:30:13;;;;;;;0.40;0.40;;;14.40;99.90;;;;;;4380797;32;21811;-63
2023/09/15 06:32:38;;;;;;;0.52;0.52;;;14.50;99.90;;;;;;4377910;32;20287;-59
2023/09/15 06:35:05;;;;;;;0.40;0.40;;;14.60;99.90;;;;;;4389160;32;20148;-62
2023/09/15 06:37:31;;;;;;;0.50;0.50;;;14.60;99.90;;;;;;4380093;32;20081;-63
2023/09/15 06:39:56;;;;;;;0.50;0.50;;;14.70;99.90;;;;;;4381222;32;20312;-57
2023/09/15 06:42:22;;;;;;;0.40;0.40;;;14.80;99.90;;;;;;4382114;32;22093;-63
2023/09/15 06:44:47;;;;;;;0.43;0.43;;;14.80;99.90;;;;;;4387210;32;20106;-60
2023/09/15 06:47:13;;;;;;;1.67;0.57;;;14.90;99.90;;;;;;4383398;32;20086;-61
2023/09/15 06:49:38;;;;;;;1.58;0.70;;;15.00;99.90;;;;;;4384824;32;20101;-62
2023/09/15 06:52:05;;;;;;;0.50;0.50;;;15.10;99.90;;;;;;4381565;32;20101;-62
2023/09/15 06:54:30;;;;;;;0.65;0.62;;;15.10;99.90;;;;;;4379501;32;20596;-62
2023/09/15 06:56:56;;;;;;;1.48;0.70;;;15.20;99.90;;;;;;4383091;32;20889;-62
2023/09/15 06:59:21;;;;;;;0.88;0.82;;;15.30;99.90;;;;;;4384886;32;20174;-57
2023/09/15 07:01:47;;;;;;;0.85;0.85;;;15.40;99.90;;;;;;4390346;32;20101;-58
2023/09/15 07:04:13;;;;;;;0.50;0.50;;;15.50;99.90;;;;;;4394725;32;20100;-59
2023/09/15 07:06:40;;;;;;;0.47;0.47;;;15.50;99.90;;;;;;4393911;32;20093;-61
2023/09/15 07:09:06;;;;;;;0.37;0.37;;;15.50;99.90;;;;;;4380875;32;20077;-60
2023/09/15 07:11:31;;;;;;;0.40;0.40;;;15.60;99.90;;;;;;4393770;32;20544;-62
2023/09/15 07:13:57;;;;;;;0.52;0.52;;;15.70;99.90;;;;;;4390541;32;20187;-61
2023/09/15 07:16:22;;;;;;;0.60;0.60;;;15.80;99.90;;;;;;4378927;32;20494;-61
2023/09/15 07:18:48;;;;;;;1.40;0.70;;;15.90;99.90;;;;;;4386909;32;20089;-61
2023/09/15 07:21:13;;;;;;;0.40;0.40;;;15.90;99.90;;;;;;4389932;32;20105;-59
2023/09/15 07:23:40;;;;;;;1.12;1.02;;;15.90;99.90;;;;;;4381019;32;20187;-62
2023/09/15 07:26:05;;;;;;;0.40;0.40;;;16.00;99.90;;;;;;4385505;32;20105;-62
2023/09/15 07:28:32;;;;;;;0.50;0.47;;;16.00;99.90;;;;;;4382375;32;20596;-61
2023/09/15 07:31:06;;;;;;;0.75;0.65;;;16.10;99.90;;;;;;4366540;32;20288;-62
2023/09/15 07:33:32;;;;;;;0.45;0.45;;;16.20;99.90;;;;;;4359157;32;20089;-60
2023/09/15 07:36:00;;;;;;;1.02;0.60;;;16.30;99.90;;;;;;4369996;32;20850;-61
2023/09/15 07:38:26;;;;;;;1.60;0.90;;;16.30;99.90;;;;;;4361061;32;20066;-61
2023/09/15 07:40:53;;;;;;;0.70;0.70;;;16.40;99.90;;;;;;4369323;32;20195;-62
2023/09/15 07:43:19;;;;;;;0.80;0.60;;;16.50;99.90;;;;;;4387585;32;20193;-62
2023/09/15 07:45:44;;;;;;;0.73;0.73;;;16.50;99.90;;;;;;4373275;32;20631;-59
2023/09/15 07:48:10;;;;;;;0.52;0.52;;;16.70;99.90;;;;;;4379871;32;20090;-62
2023/09/15 07:50:36;;;;;;;0.82;0.82;;;16.80;99.90;;;;;;4375837;32;20448;-63
2023/09/15 07:53:02;;;;;;;0.50;0.50;;;16.70;99.90;;;;;;4367608;32;20501;-63
2023/09/15 07:55:28;;;;;;;0.32;0.32;;;16.80;99.90;;;;;;4380474;32;20132;-63
2023/09/15 07:57:53;;;;;;;0.52;0.52;;;16.80;99.90;;;;;;4393992;32;20160;-62
2023/09/15 08:00:19;;;;;;;0.30;0.30;;;16.90;99.90;;;;;;4383888;32;20105;-63
2023/09/15 08:02:44;;;;;;;3.37;0.62;;;17.00;99.90;;;;;;4383350;32;20109;-62
2023/09/15 08:05:11;;;;;;;0.40;0.40;;;17.00;99.90;;;;;;4371946;32;20121;-60
2023/09/15 08:07:37;;;;;;;0.50;0.50;;;17.00;99.90;;;;;;4380087;32;20969;-60
2023/09/15 08:10:04;;;;;;;0.30;0.30;;;17.10;99.90;;;;;;4389069;32;20098;-61
2023/09/15 08:12:29;;;;;;;0.47;0.47;;;17.10;99.90;;;;;;4382452;32;20114;-63
2023/09/15 08:14:55;;;;;;;0.75;0.62;;;17.20;99.90;;;;;;4382318;32;20190;-61
2023/09/15 08:17:21;;;;;;;1.02;0.52;;;17.30;99.90;;;;;;4392440;32;20985;-61
2023/09/15 08:19:46;;;;;;;0.45;0.40;;;17.40;99.90;;;;;;4381557;32;21146;-61
2023/09/15 08:22:13;;;;;;;1.23;0.65;;;17.50;99.90;;;;;;4371268;32;21063;-63
2023/09/15 08:24:39;;;;;;;0.50;0.50;;;17.50;99.90;;;;;;4378105;32;21825;-63
2023/09/15 08:27:04;;;;;;;0.40;0.40;;;17.60;99.90;;;;;;4380234;32;20908;-63
2023/09/15 08:29:30;;;;;;;0.62;0.62;;;17.70;99.90;;;;;;4372552;32;20093;-60
2023/09/15 08:31:55;;;;;;;2.97;0.85;;;17.70;99.90;;;;;;4393614;32;20368;-64
2023/09/15 08:34:21;;;;;;;0.35;0.35;;;17.70;99.90;;;;;;4366747;32;20375;-64
2023/09/15 08:36:46;;;;;;;0.57;0.57;;;17.80;99.90;;;;;;4372121;32;21100;-63
2023/09/15 08:39:12;;;;;;;0.35;0.35;;;17.90;99.90;;;;;;4391872;32;20173;-64
2023/09/15 08:41:40;;;;;;;4.35;1.02;;;18.00;99.90;;;;;;4384055;32;20110;-62
2023/09/15 08:44:09;;;;;;;0.40;0.40;;;18.00;99.90;;;;;;4373777;32;20665;-63
2023/09/15 08:46:39;;;;;;;0.93;0.65;;;18.10;99.90;;;;;;4364376;32;20081;-63
2023/09/15 08:49:05;;;;;;;0.47;0.47;;;18.20;99.90;;;;;;4376224;32;20097;-63
2023/09/15 08:51:31;;;;;;;0.30;0.30;;;18.30;99.90;;;;;;4376444;32;20471;-62
2023/09/15 08:53:57;;;;;;;0.40;0.40;;;18.40;99.90;;;;;;4367243;32;20093;-62
2023/09/15 08:56:24;;;;;;;0.45;0.43;;;18.50;99.90;;;;;;4381654;32;20211;-62
2023/09/15 08:58:50;;;;;;;6.60;0.60;;;18.50;99.90;;;;;;4368009;32;20109;-63
2023/09/15 09:01:17;;;;;;;0.68;0.40;;;18.60;99.90;;;;;;4378454;32;20131;-64
2023/09/15 09:03:43;;;;;;;0.30;0.30;;;18.70;99.90;;;;;;4383425;32;20105;-64
2023/09/15 09:06:11;;;;;;;1.27;0.75;;;18.70;99.90;;;;;;4364895;32;21360;-61
2023/09/15 09:08:40;;;;;;;0.37;0.37;;;18.80;99.90;;;;;;4381354;32;20104;-64
2023/09/15 09:11:05;;;;;;;0.50;0.50;;;18.90;99.90;;;;;;4359968;32;20764;-62
2023/09/15 09:13:31;;;;;;;0.30;0.30;;;19.00;99.90;;;;;;4390349;32;21140;-65
2023/09/15 09:15:57;;;;;;;0.50;0.50;;;19.20;99.90;;;;;;4357968;32;20540;-63
2023/09/15 09:18:23;;;;;;;0.62;0.50;;;19.20;99.90;;;;;;4379474;32;20131;-65
2023/09/15 09:20:50;;;;;;;0.47;0.47;;;19.30;99.90;;;;;;4363391;32;20085;-63
2023/09/15 09:23:18;;;;;;;0.20;0.20;;;19.40;99.90;;;;;;4355350;32;21362;-63
2023/09/15 09:25:45;;;;;;;0.68;0.68;;;19.50;99.90;;;;;;4344671;32;20089;-63
2023/09/15 09:28:11;;;;;;;0.30;0.30;;;19.70;99.90;;;;;;4371436;32;21291;-62
2023/09/15 09:30:36;;;;;;;0.45;0.45;;;19.80;99.90;;;;;;4360321;32;20880;-64
2023/09/15 09:33:04;;;;;;;0.40;0.40;;;19.90;99.90;;;;;;4371552;32;20089;-62
2023/09/15 09:35:30;;;;;;;0.40;0.40;;;20.10;99.90;;;;;;4386819;32;20085;-63
2023/09/15 09:37:58;;;;;;;0.77;0.77;;;20.20;99.90;;;;;;4385956;32;20276;-62
2023/09/15 09:40:25;;;;;;;0.35;0.35;;;20.40;99.90;;;;;;4382075;32;20060;-62
2023/09/15 09:42:52;;;;;;;0.30;0.30;;;20.40;99.90;;;;;;4388317;32;20152;-62
2023/09/15 09:45:17;;;;;;;0.30;0.30;;;20.40;99.90;;;;;;4383434;32;20692;-64
2023/09/15 09:47:43;;;;;;;0.80;0.75;;;20.50;99.90;;;;;;4361901;32;20446;-62
2023/09/15 09:50:10;;;;;;;0.30;0.30;;;20.70;99.90;;;;;;4389707;32;20466;-63
2023/09/15 09:52:37;;;;;;;0.30;0.30;;;20.80;99.90;;;;;;4385818;32;20631;-62
2023/09/15 09:55:07;;;;;;;0.50;0.50;;;20.80;99.90;;;;;;4382422;32;20086;-61
2023/09/15 09:57:33;;;;;;;1.05;0.30;;;20.90;99.90;;;;;;4382420;32;20101;-62
2023/09/15 09:59:58;;;;;;;0.20;0.20;;;21.00;99.90;;;;;;4382510;32;21282;-62
2023/09/15 10:02:25;;;;;;;1.70;1.08;;;21.00;99.90;;;;;;4377067;32;20121;-61
2023/09/15 10:04:50;;;;;;;0.30;0.30;;;21.10;99.90;;;;;;4347905;32;20097;-62
2023/09/15 10:07:16;;;;;;;0.43;0.43;;;21.20;99.90;;;;;;4386028;32;20538;-62
2023/09/15 10:09:42;;;;;;;0.30;0.30;;;21.30;99.90;;;;;;4377296;32;20557;-62
2023/09/15 10:12:10;;;;;;;0.35;0.35;;;21.20;99.90;;;;;;4380974;32;20085;-61
2023/09/15 10:14:36;;;;;;;0.20;0.20;;;21.30;99.90;;;;;;4380589;32;20089;-63
2023/09/15 10:17:02;;;;;;;0.85;0.52;;;21.50;99.90;;;;;;4369702;32;20123;-63
2023/09/15 10:19:29;;;;;;;0.37;0.37;;;21.60;99.90;;;;;;4373414;32;20508;-64
2023/09/15 10:21:57;;;;;;;0.62;0.57;;;21.60;99.90;;;;;;4397323;32;20216;-64
2023/09/15 10:24:22;;;;;;;0.25;0.25;;;21.60;99.90;;;;;;4379121;32;20081;-63
2023/09/15 10:26:48;;;;;;;1.67;0.68;;;21.80;99.90;;;;;;4393379;32;20147;-63
2023/09/15 10:29:14;;;;;;;0.30;0.30;;;22.00;99.90;;;;;;4395917;32;20335;-65
2023/09/15 10:31:47;;;;;;;0.20;0.20;;;22.00;99.90;;;;;;4379862;32;20078;-64
2023/09/15 10:34:15;;;;;;;0.20;0.20;;;22.00;99.90;;;;;;4395906;32;20097;-63
2023/09/15 10:36:44;;;;;;;0.60;0.30;;;22.10;99.90;;;;;;4389227;32;20101;-63
2023/09/15 10:39:15;;;;;;;0.32;0.32;;;22.30;99.90;;;;;;4403876;32;20232;-63
2023/09/15 10:41:41;;;;;;;0.20;0.20;;;22.30;99.90;;;;;;4388286;32;20105;-63
2023/09/15 10:44:07;;;;;;;0.30;0.30;;;22.20;99.90;;;;;;4397794;32;20085;-64
2023/09/15 10:46:39;;;;;;;0.43;0.43;;;22.30;99.90;;;;;;4396671;32;20113;-62
2023/09/15 10:49:14;;;;;;;0.25;0.25;;;22.30;99.90;;;;;;4382224;32;20450;-63
2023/09/15 10:51:51;;;;;;;0.30;0.30;;;22.50;99.90;;;;;;4397454;32;20085;-65
2023/09/15 10:54:17;;;;;;;0.20;0.20;;;22.60;99.90;;;;;;4373076;32;20631;-62
2023/09/15 10:56:43;;;;;;;0.28;0.28;;;22.90;99.90;;;;;;4353390;32;20121;-62
2023/09/15 10:59:09;;;;;;;0.20;0.20;;;22.90;99.90;;;;;;4387037;32;20696;-64
2023/09/15 11:01:36;;;;;;;0.20;0.20;;;22.90;99.90;;;;;;4381790;32;20461;-65
2023/09/15 11:04:03;;;;;;;0.35;0.35;;;22.80;99.90;;;;;;4391866;32;20116;-64
2023/09/15 11:06:29;;;;;;;0.43;0.43;;;22.80;99.90;;;;;;4388453;32;20596;-65
2023/09/15 11:08:56;;;;;;;0.50;0.50;;;22.80;99.90;;;;;;4367568;32;20094;-64
2023/09/15 11:11:22;;;;;;;0.17;0.17;;;22.80;99.90;;;;;;4383022;32;20321;-65
2023/09/15 11:13:47;;;;;;;0.20;0.20;;;22.90;99.90;;;;;;4366055;32;20175;-64
2023/09/15 11:16:13;;;;;;;0.35;0.35;;;22.80;99.90;;;;;;4392368;32;20553;-62
2023/09/15 11:18:38;;;;;;;0.30;0.30;;;22.90;99.90;;;;;;4368478;32;20440;-64
2023/09/15 11:21:05;;;;;;;0.22;0.22;;;23.00;99.90;;;;;;4369337;32;20156;-64
2023/09/15 11:23:31;;;;;;;0.62;0.28;;;23.30;99.90;;;;;;4373678;32;20079;-65
2023/09/15 11:26:02;;;;;;;0.20;0.20;;;23.60;99.90;;;;;;4391830;32;20753;-63
2023/09/15 11:28:31;;;;;;;0.10;0.10;;;23.80;99.90;;;;;;4380925;32;20545;-63
2023/09/15 11:30:57;;;;;;;2.37;0.52;;;24.10;99.90;;;;;;4381723;32;20105;-64
2023/09/15 11:33:22;;;;;;;0.52;0.15;;;24.50;99.90;;;;;;4392982;32;20115;-65
2023/09/15 11:35:48;;;;;;;0.52;0.40;;;24.70;99.90;;;;;;4376370;32;20591;-65
2023/09/15 11:38:14;;;;;;;0.20;0.20;;;24.80;99.90;;;;;;4374606;32;20094;-63
2023/09/15 11:40:46;;;;;;;0.20;0.20;;;25.20;99.20;;;;;;4373470;32;20824;-65
2023/09/15 11:43:11;;;;;;;0.35;0.30;;;25.40;98.70;;;;;;4375196;32;20081;-65
2023/09/15 11:45:38;;;;;;;0.10;0.10;;;25.60;98.90;;;;;;4379641;32;20147;-65
2023/09/15 11:48:05;;;;;;;0.10;0.10;;;25.70;98.60;;;;;;4375273;32;104520;-66
2023/09/15 11:50:32;;;;;;;0.10;0.10;;;25.90;99.10;;;;;;4363632;32;20137;-63
2023/09/15 11:52:58;;;;;;;0.20;0.20;;;26.10;98.80;;;;;;4362122;32;21000;-63
2023/09/15 11:55:25;;;;;;;1.20;0.57;;;26.20;98.60;;;;;;4375274;32;20089;-63
2023/09/15 11:57:51;;;;;;;0.00;0.00;;;26.30;98.60;;;;;;4362159;32;20450;-63
2023/09/15 12:00:20;;;;;;;0.17;0.17;;;26.30;97.30;;;;;;4353229;32;20869;-63
2023/09/15 12:02:47;;;;;;;0.25;0.25;;;26.10;97.60;;;;;;4346572;32;20207;-65
2023/09/15 12:05:15;;;;;;;0.10;0.10;;;26.10;97.40;;;;;;4355210;32;20834;-63
2023/09/15 12:07:43;;;;;;;1.65;0.20;;;26.40;96.70;;;;;;4361650;32;20098;-64
2023/09/15 12:10:12;;;;;;;0.20;0.13;;;26.80;96.30;;;;;;4378371;32;20073;-64
2023/09/15 12:12:38;;;;;;;0.45;0.45;;;27.70;95.50;;;;;;4377419;32;20093;-63
2023/09/15 12:15:06;;;;;;;0.35;0.30;;;27.60;95.40;;;;;;4385000;32;20678;-64
2023/09/15 12:17:32;;;;;;;0.10;0.08;;;27.60;95.10;;;;;;4364106;32;20085;-64
2023/09/15 12:19:59;;;;;;;0.40;0.40;;;27.70;95.10;;;;;;4379378;32;20276;-63
2023/09/15 12:22:33;;;;;;;0.00;0.00;;;28.00;94.50;;;;;;4353793;32;20140;-64
2023/09/15 12:25:00;;;;;;;0.20;0.20;;;28.40;93.70;;;;;;4369451;32;20171;-63
2023/09/15 12:27:27;;;;;;;0.20;0.20;;;28.60;92.80;;;;;;4364167;32;20081;-62
2023/09/15 12:29:56;;;;;;;0.10;0.10;;;28.80;92.80;;;;;;4372406;32;20714;-64
2023/09/15 12:32:26;;;;;;;0.55;0.40;;;29.00;91.70;;;;;;4365570;32;20170;-64
2023/09/15 12:34:53;;;;;;;0.43;0.43;;;29.30;91.40;;;;;;4393353;32;20176;-64
2023/09/15 12:37:19;;;;;;;0.22;0.20;;;29.10;91.50;;;;;;4369671;32;21056;-63
2023/09/15 12:39:44;;;;;;;0.10;0.10;;;29.40;91.40;;;;;;4394544;32;20579;-63
2023/09/15 12:42:10;;;;;;;0.20;0.20;;;29.40;91.60;;;;;;4397810;32;20540;-63
2023/09/15 12:44:35;;;;;;;4.37;0.50;;;29.60;91.10;;;;;;4398063;32;20228;-61